Terminal Aerodrome Forecast
Issued by NWS

Home | Current Version | Previous Version | Text Only | Print | Product List | Glossary On
Versions: 1 2 3 4 5 6 7 8 9 10 11 12 13 14 15 16 17 18 19 20 21 22 23 24 25 26 27 28 29 30 31 32 33 34 35 36 37 38 39 40 41 42
000
FTUS41 KBOX 231120
TAFMHT
TAF
KMHT 231120Z 2312/2412 20006KT P6SM FEW050
     FM231700 23010KT P6SM SCT050
     FM232000 23010KT P6SM VCTS BKN050CB
     FM240000 24007KT P6SM -SHRA OVC050
     FM240500 30004KT 3SM -SHRA BR OVC060
     FM240700 31004KT 3SM BR OVC070=

USA.gov is the U.S. government's official web portal to all federal, state and local government web resources and services.